sensor_id;sensor_type;location;lat;lon;timestamp;temperature;humidity
15384;DHT22;7790;53.022;12.968;2023-04-03T00:03:40;20.20;42.90
15384;DHT22;7790;53.022;12.968;2023-04-03T00:07:44;20.10;43.00
15384;DHT22;7790;53.022;12.968;2023-04-03T00:11:45;20.00;43.00
15384;DHT22;7790;53.022;12.968;2023-04-03T00:15:46;20.00;43.10
15384;DHT22;7790;53.022;12.968;2023-04-03T00:19:47;20.00;43.10
15384;DHT22;7790;53.022;12.968;2023-04-03T00:23:48;19.90;43.10
15384;DHT22;7790;53.022;12.968;2023-04-03T00:27:49;19.90;43.10
15384;DHT22;7790;53.022;12.968;2023-04-03T00:31:50;19.90;43.10
15384;DHT22;7790;53.022;12.968;2023-04-03T00:35:51;20.00;43.00
15384;DHT22;7790;53.022;12.968;2023-04-03T00:39:52;20.10;42.90
15384;DHT22;7790;53.022;12.968;2023-04-03T00:43:54;20.10;42.60
15384;DHT22;7790;53.022;12.968;2023-04-03T00:47:55;20.20;42.70
15384;DHT22;7790;53.022;12.968;2023-04-03T00:51:57;20.30;42.70
15384;DHT22;7790;53.022;12.968;2023-04-03T00:56:00;20.30;42.60
15384;DHT22;7790;53.022;12.968;2023-04-03T01:00:05;20.40;42.60
15384;DHT22;7790;53.022;12.968;2023-04-03T01:04:36;20.40;42.60
15384;DHT22;7790;53.022;12.968;2023-04-03T01:08:38;20.30;42.70
15384;DHT22;7790;53.022;12.968;2023-04-03T01:12:40;20.30;42.70
15384;DHT22;7790;53.022;12.968;2023-04-03T01:16:42;20.20;42.90
15384;DHT22;7790;53.022;12.968;2023-04-03T01:24:47;20.00;42.90
15384;DHT22;7790;53.022;12.968;2023-04-03T01:28:48;20.00;43.00
15384;DHT22;7790;53.022;12.968;2023-04-03T01:32:48;20.00;42.80
15384;DHT22;7790;53.022;12.968;2023-04-03T01:36:50;19.90;42.90
15384;DHT22;7790;53.022;12.968;2023-04-03T01:40:52;19.90;43.10
15384;DHT22;7790;53.022;12.968;2023-04-03T01:44:53;19.90;43.10
15384;DHT22;7790;53.022;12.968;2023-04-03T01:48:54;19.90;42.90
15384;DHT22;7790;53.022;12.968;2023-04-03T01:52:55;20.00;42.60
15384;DHT22;7790;53.022;12.968;2023-04-03T01:56:56;20.10;42.60
15384;DHT22;7790;53.022;12.968;2023-04-03T02:00:57;20.20;42.50
15384;DHT22;7790;53.022;12.968;2023-04-03T02:04:58;20.30;42.40
15384;DHT22;7790;53.022;12.968;2023-04-03T02:08:59;20.40;42.40
15384;DHT22;7790;53.022;12.968;2023-04-03T02:13:00;20.30;42.30
15384;DHT22;7790;53.022;12.968;2023-04-03T02:17:01;20.30;42.30
15384;DHT22;7790;53.022;12.968;2023-04-03T02:21:05;20.30;42.40
15384;DHT22;7790;53.022;12.968;2023-04-03T02:25:06;20.30;42.40
15384;DHT22;7790;53.022;12.968;2023-04-03T02:29:07;20.20;42.50
15384;DHT22;7790;53.022;12.968;2023-04-03T02:33:09;20.10;42.50
15384;DHT22;7790;53.022;12.968;2023-04-03T02:37:12;20.00;42.60
15384;DHT22;7790;53.022;12.968;2023-04-03T02:41:13;19.90;42.60
15384;DHT22;7790;53.022;12.968;2023-04-03T02:45:14;19.90;42.60
15384;DHT22;7790;53.022;12.968;2023-04-03T02:49:16;19.80;42.70
15384;DHT22;7790;53.022;12.968;2023-04-03T02:53:18;19.80;42.70
15384;DHT22;7790;53.022;12.968;2023-04-03T02:57:19;19.80;42.80
15384;DHT22;7790;53.022;12.968;2023-04-03T03:01:21;19.90;42.70
15384;DHT22;7790;53.022;12.968;2023-04-03T03:05:22;20.00;42.50
15384;DHT22;7790;53.022;12.968;2023-04-03T03:09:22;20.00;42.40
15384;DHT22;7790;53.022;12.968;2023-04-03T03:13:24;20.20;42.30
15384;DHT22;7790;53.022;12.968;2023-04-03T03:17:25;20.20;42.20
15384;DHT22;7790;53.022;12.968;2023-04-03T03:21:26;20.30;42.10
15384;DHT22;7790;53.022;12.968;2023-04-03T03:25:27;20.40;42.10
15384;DHT22;7790;53.022;12.968;2023-04-03T03:29:30;20.30;42.10
15384;DHT22;7790;53.022;12.968;2023-04-03T03:33:32;20.30;42.20
15384;DHT22;7790;53.022;12.968;2023-04-03T03:37:34;20.30;42.20
15384;DHT22;7790;53.022;12.968;2023-04-03T03:41:35;20.20;42.20
15384;DHT22;7790;53.022;12.968;2023-04-03T03:45:37;20.10;42.20
15384;DHT22;7790;53.022;12.968;2023-04-03T03:49:38;20.00;42.20
15384;DHT22;7790;53.022;12.968;2023-04-03T03:53:39;20.00;42.30
15384;DHT22;7790;53.022;12.968;2023-04-03T03:57:44;19.90;42.90
15384;DHT22;7790;53.022;12.968;2023-04-03T04:01:45;19.80;42.40
15384;DHT22;7790;53.022;12.968;2023-04-03T04:05:46;19.80;42.40
15384;DHT22;7790;53.022;12.968;2023-04-03T04:09:48;19.70;42.40
15384;DHT22;7790;53.022;12.968;2023-04-03T04:13:49;19.80;42.40
15384;DHT22;7790;53.022;12.968;2023-04-03T04:17:53;19.90;42.50
15384;DHT22;7790;53.022;12.968;2023-04-03T04:21:54;20.00;42.40
15384;DHT22;7790;53.022;12.968;2023-04-03T04:25:56;20.10;42.50
15384;DHT22;7790;53.022;12.968;2023-04-03T04:29:58;20.30;42.50
15384;DHT22;7790;53.022;12.968;2023-04-03T04:33:58;20.30;42.50
15384;DHT22;7790;53.022;12.968;2023-04-03T04:38:00;20.40;42.60
15384;DHT22;7790;53.022;12.968;2023-04-03T04:42:01;20.40;42.70
15384;DHT22;7790;53.022;12.968;2023-04-03T04:46:09;20.40;42.70
15384;DHT22;7790;53.022;12.968;2023-04-03T04:50:18;20.30;42.90
15384;DHT22;7790;53.022;12.968;2023-04-03T04:54:19;20.20;42.90
15384;DHT22;7790;53.022;12.968;2023-04-03T04:58:25;20.20;43.00
15384;DHT22;7790;53.022;12.968;2023-04-03T05:02:26;20.10;43.10
15384;DHT22;7790;53.022;12.968;2023-04-03T05:06:29;20.00;43.20
15384;DHT22;7790;53.022;12.968;2023-04-03T05:10:33;19.90;43.10
15384;DHT22;7790;53.022;12.968;2023-04-03T05:14:34;19.90;43.10
15384;DHT22;7790;53.022;12.968;2023-04-03T05:18:40;19.90;43.10
15384;DHT22;7790;53.022;12.968;2023-04-03T05:22:45;19.80;43.10
15384;DHT22;7790;53.022;12.968;2023-04-03T05:26:47;19.80;43.20
15384;DHT22;7790;53.022;12.968;2023-04-03T05:30:57;19.90;43.10
15384;DHT22;7790;53.022;12.968;2023-04-03T05:35:02;20.00;43.20
15384;DHT22;7790;53.022;12.968;2023-04-03T05:39:03;20.00;43.00
15384;DHT22;7790;53.022;12.968;2023-04-03T05:43:05;20.10;42.90
15384;DHT22;7790;53.022;12.968;2023-04-03T05:47:09;20.20;42.90
15384;DHT22;7790;53.022;12.968;2023-04-03T05:51:16;20.30;42.90
15384;DHT22;7790;53.022;12.968;2023-04-03T05:55:18;20.30;42.90
15384;DHT22;7790;53.022;12.968;2023-04-03T05:59:20;20.30;42.80
15384;DHT22;7790;53.022;12.968;2023-04-03T06:03:24;20.30;42.90
15384;DHT22;7790;53.022;12.968;2023-04-03T06:07:26;20.30;42.90
15384;DHT22;7790;53.022;12.968;2023-04-03T06:11:28;20.20;42.80
15384;DHT22;7790;53.022;12.968;2023-04-03T06:15:29;20.10;42.90
15384;DHT22;7790;53.022;12.968;2023-04-03T06:19:30;20.00;42.90
15384;DHT22;7790;53.022;12.968;2023-04-03T06:23:32;19.90;43.00
15384;DHT22;7790;53.022;12.968;2023-04-03T06:27:33;19.90;43.30
15384;DHT22;7790;53.022;12.968;2023-04-03T06:31:34;19.80;43.20
15384;DHT22;7790;53.022;12.968;2023-04-03T06:35:36;19.80;43.20
15384;DHT22;7790;53.022;12.968;2023-04-03T06:39:39;19.70;43.20
15384;DHT22;7790;53.022;12.968;2023-04-03T06:43:40;19.80;43.30
15384;DHT22;7790;53.022;12.968;2023-04-03T06:47:41;19.90;43.20
15384;DHT22;7790;53.022;12.968;2023-04-03T06:51:42;19.90;43.30
15384;DHT22;7790;53.022;12.968;2023-04-03T06:55:43;20.00;43.10
15384;DHT22;7790;53.022;12.968;2023-04-03T06:59:44;20.00;42.80
15384;DHT22;7790;53.022;12.968;2023-04-03T07:03:45;20.30;42.60
15384;DHT22;7790;53.022;12.968;2023-04-03T07:07:47;20.40;43.00
15384;DHT22;7790;53.022;12.968;2023-04-03T07:11:47;20.50;43.30
15384;DHT22;7790;53.022;12.968;2023-04-03T07:15:49;20.60;43.70
15384;DHT22;7790;53.022;12.968;2023-04-03T07:19:51;20.80;43.80
15384;DHT22;7790;53.022;12.968;2023-04-03T07:23:52;21.00;43.70
15384;DHT22;7790;53.022;12.968;2023-04-03T07:27:52;20.90;44.00
15384;DHT22;7790;53.022;12.968;2023-04-03T07:31:55;20.90;43.80
15384;DHT22;7790;53.022;12.968;2023-04-03T07:35:56;20.80;43.60
15384;DHT22;7790;53.022;12.968;2023-04-03T07:39:58;20.70;43.80
15384;DHT22;7790;53.022;12.968;2023-04-03T07:43:59;20.70;43.40
15384;DHT22;7790;53.022;12.968;2023-04-03T07:48:01;20.70;44.00
15384;DHT22;7790;53.022;12.968;2023-04-03T07:52:02;20.60;43.90
15384;DHT22;7790;53.022;12.968;2023-04-03T07:56:04;20.60;44.00
15384;DHT22;7790;53.022;12.968;2023-04-03T08:00:05;20.60;44.00
15384;DHT22;7790;53.022;12.968;2023-04-03T08:04:12;20.60;44.00
15384;DHT22;7790;53.022;12.968;2023-04-03T08:08:21;20.50;43.70
15384;DHT22;7790;53.022;12.968;2023-04-03T08:12:23;20.50;43.40
15384;DHT22;7790;53.022;12.968;2023-04-03T08:16:24;20.50;43.30
15384;DHT22;7790;53.022;12.968;2023-04-03T08:20:28;20.60;43.20
15384;DHT22;7790;53.022;12.968;2023-04-03T08:24:29;20.80;42.90
15384;DHT22;7790;53.022;12.968;2023-04-03T08:28:30;20.90;42.80
15384;DHT22;7790;53.022;12.968;2023-04-03T08:32:30;20.80;42.90
15384;DHT22;7790;53.022;12.968;2023-04-03T08:36:31;20.90;42.80
15384;DHT22;7790;53.022;12.968;2023-04-03T08:40:32;20.90;42.70
15384;DHT22;7790;53.022;12.968;2023-04-03T08:44:52;20.90;42.60
15384;DHT22;7790;53.022;12.968;2023-04-03T08:48:58;20.90;42.70
15384;DHT22;7790;53.022;12.968;2023-04-03T08:53:01;21.00;43.30
15384;DHT22;7790;53.022;12.968;2023-04-03T08:57:05;20.80;42.40
15384;DHT22;7790;53.022;12.968;2023-04-03T09:01:33;20.80;42.90
15384;DHT22;7790;53.022;12.968;2023-04-03T09:09:43;20.70;42.80
15384;DHT22;7790;53.022;12.968;2023-04-03T09:13:57;20.70;43.50
15384;DHT22;7790;53.022;12.968;2023-04-03T09:22:21;20.50;42.60
15384;DHT22;7790;53.022;12.968;2023-04-03T09:26:44;20.40;42.50
15384;DHT22;7790;53.022;12.968;2023-04-03T09:30:46;20.30;42.50
15384;DHT22;7790;53.022;12.968;2023-04-03T09:34:49;20.40;43.00
15384;DHT22;7790;53.022;12.968;2023-04-03T09:39:11;20.40;43.30
15384;DHT22;7790;53.022;12.968;2023-04-03T09:43:19;20.50;43.20
15384;DHT22;7790;53.022;12.968;2023-04-03T09:51:28;20.80;43.10
15384;DHT22;7790;53.022;12.968;2023-04-03T09:55:29;20.90;43.10
15384;DHT22;7790;53.022;12.968;2023-04-03T09:59:31;21.00;42.90
15384;DHT22;7790;53.022;12.968;2023-04-03T10:03:34;21.00;42.60
15384;DHT22;7790;53.022;12.968;2023-04-03T10:07:38;21.00;42.50
15384;DHT22;7790;53.022;12.968;2023-04-03T10:12:01;21.00;42.90
15384;DHT22;7790;53.022;12.968;2023-04-03T10:16:14;20.90;42.70
15384;DHT22;7790;53.022;12.968;2023-04-03T10:20:44;20.90;42.90
15384;DHT22;7790;53.022;12.968;2023-04-03T10:29:36;20.70;42.60
15384;DHT22;7790;53.022;12.968;2023-04-03T10:34:05;20.70;42.60
15384;DHT22;7790;53.022;12.968;2023-04-03T10:42:52;20.60;42.60
15384;DHT22;7790;53.022;12.968;2023-04-03T10:47:07;20.60;42.50
15384;DHT22;7790;53.022;12.968;2023-04-03T10:51:22;20.60;42.90
15384;DHT22;7790;53.022;12.968;2023-04-03T10:59:53;20.80;43.00
15384;DHT22;7790;53.022;12.968;2023-04-03T11:03:58;20.80;42.00
15384;DHT22;7790;53.022;12.968;2023-04-03T11:08:04;20.80;41.80
15384;DHT22;7790;53.022;12.968;2023-04-03T11:12:38;20.90;41.80
15384;DHT22;7790;53.022;12.968;2023-04-03T11:16:49;20.90;41.60
15384;DHT22;7790;53.022;12.968;2023-04-03T11:21:13;20.80;41.40
15384;DHT22;7790;53.022;12.968;2023-04-03T11:25:25;20.70;41.60
15384;DHT22;7790;53.022;12.968;2023-04-03T11:29:37;20.60;41.60
15384;DHT22;7790;53.022;12.968;2023-04-03T11:37:56;20.40;41.50
15384;DHT22;7790;53.022;12.968;2023-04-03T11:42:26;20.30;41.70
15384;DHT22;7790;53.022;12.968;2023-04-03T11:46:58;20.20;41.60
15384;DHT22;7790;53.022;12.968;2023-04-03T11:59:23;20.50;41.80
15384;DHT22;7790;53.022;12.968;2023-04-03T12:07:29;20.60;41.70
15384;DHT22;7790;53.022;12.968;2023-04-03T12:11:30;20.70;41.60
15384;DHT22;7790;53.022;12.968;2023-04-03T12:19:41;20.80;41.40
15384;DHT22;7790;53.022;12.968;2023-04-03T12:24:13;20.80;41.00
15384;DHT22;7790;53.022;12.968;2023-04-03T12:28:24;20.80;41.20
15384;DHT22;7790;53.022;12.968;2023-04-03T12:33:02;20.80;41.20
15384;DHT22;7790;53.022;12.968;2023-04-03T12:37:15;20.80;41.40
15384;DHT22;7790;53.022;12.968;2023-04-03T12:41:37;20.70;41.50
15384;DHT22;7790;53.022;12.968;2023-04-03T12:49:53;20.50;41.10
15384;DHT22;7790;53.022;12.968;2023-04-03T12:54:02;20.40;41.10
15384;DHT22;7790;53.022;12.968;2023-04-03T12:58:27;20.40;41.10
15384;DHT22;7790;53.022;12.968;2023-04-03T13:02:31;20.30;41.10
15384;DHT22;7790;53.022;12.968;2023-04-03T13:06:40;20.20;41.20
15384;DHT22;7790;53.022;12.968;2023-04-03T13:10:54;20.20;41.20
15384;DHT22;7790;53.022;12.968;2023-04-03T13:14:58;20.30;41.10
15384;DHT22;7790;53.022;12.968;2023-04-03T13:18:59;20.40;41.30
15384;DHT22;7790;53.022;12.968;2023-04-03T13:23:04;20.50;41.70
15384;DHT22;7790;53.022;12.968;2023-04-03T13:27:06;20.70;42.00
15384;DHT22;7790;53.022;12.968;2023-04-03T13:35:29;20.80;41.50
15384;DHT22;7790;53.022;12.968;2023-04-03T13:39:39;20.80;41.40
15384;DHT22;7790;53.022;12.968;2023-04-03T13:43:40;20.80;41.20
15384;DHT22;7790;53.022;12.968;2023-04-03T13:47:43;20.80;41.30
15384;DHT22;7790;53.022;12.968;2023-04-03T13:51:44;20.80;41.50
15384;DHT22;7790;53.022;12.968;2023-04-03T13:55:56;20.80;41.00
15384;DHT22;7790;53.022;12.968;2023-04-03T13:59:58;20.70;41.10
15384;DHT22;7790;53.022;12.968;2023-04-03T14:04:00;20.70;40.60
15384;DHT22;7790;53.022;12.968;2023-04-03T14:08:02;20.60;40.80
15384;DHT22;7790;53.022;12.968;2023-04-03T14:12:08;20.50;40.50
15384;DHT22;7790;53.022;12.968;2023-04-03T14:16:19;20.40;40.60
15384;DHT22;7790;53.022;12.968;2023-04-03T14:20:23;20.40;40.60
15384;DHT22;7790;53.022;12.968;2023-04-03T14:24:24;20.30;40.60
15384;DHT22;7790;53.022;12.968;2023-04-03T14:28:25;20.30;40.60
15384;DHT22;7790;53.022;12.968;2023-04-03T14:32:27;20.30;40.70
15384;DHT22;7790;53.022;12.968;2023-04-03T14:36:30;20.40;41.20
15384;DHT22;7790;53.022;12.968;2023-04-03T14:40:31;20.50;41.00
15384;DHT22;7790;53.022;12.968;2023-04-03T14:44:32;20.60;40.60
15384;DHT22;7790;53.022;12.968;2023-04-03T14:48:34;20.60;40.70
15384;DHT22;7790;53.022;12.968;2023-04-03T14:52:36;20.70;40.40
15384;DHT22;7790;53.022;12.968;2023-04-03T14:56:37;20.80;41.10
15384;DHT22;7790;53.022;12.968;2023-04-03T15:00:37;20.80;41.20
15384;DHT22;7790;53.022;12.968;2023-04-03T15:04:38;20.90;41.30
15384;DHT22;7790;53.022;12.968;2023-04-03T15:08:40;20.80;41.20
15384;DHT22;7790;53.022;12.968;2023-04-03T15:12:43;20.80;41.40
15384;DHT22;7790;53.022;12.968;2023-04-03T15:16:44;20.80;41.50
15384;DHT22;7790;53.022;12.968;2023-04-03T15:20:45;20.60;40.90
15384;DHT22;7790;53.022;12.968;2023-04-03T15:24:46;20.50;41.40
15384;DHT22;7790;53.022;12.968;2023-04-03T15:28:47;20.40;41.60
15384;DHT22;7790;53.022;12.968;2023-04-03T15:32:48;20.40;41.80
15384;DHT22;7790;53.022;12.968;2023-04-03T15:36:50;20.40;41.80
15384;DHT22;7790;53.022;12.968;2023-04-03T15:40:54;20.30;41.80
15384;DHT22;7790;53.022;12.968;2023-04-03T15:44:55;20.20;41.80
15384;DHT22;7790;53.022;12.968;2023-04-03T15:48:56;20.30;41.80
15384;DHT22;7790;53.022;12.968;2023-04-03T15:52:58;20.40;42.00
15384;DHT22;7790;53.022;12.968;2023-04-03T15:56:59;20.50;41.90
15384;DHT22;7790;53.022;12.968;2023-04-03T16:01:00;20.70;41.80
15384;DHT22;7790;53.022;12.968;2023-04-03T16:05:01;20.80;41.90
15384;DHT22;7790;53.022;12.968;2023-04-03T16:09:03;20.90;41.80
15384;DHT22;7790;53.022;12.968;2023-04-03T16:13:05;21.00;41.60
15384;DHT22;7790;53.022;12.968;2023-04-03T16:17:06;21.00;41.80
15384;DHT22;7790;53.022;12.968;2023-04-03T16:21:08;21.00;41.80
15384;DHT22;7790;53.022;12.968;2023-04-03T16:25:10;20.90;41.50
15384;DHT22;7790;53.022;12.968;2023-04-03T16:29:11;20.90;41.60
15384;DHT22;7790;53.022;12.968;2023-04-03T16:33:12;20.90;41.50
15384;DHT22;7790;53.022;12.968;2023-04-03T16:37:14;20.90;41.70
15384;DHT22;7790;53.022;12.968;2023-04-03T16:41:15;20.80;41.50
15384;DHT22;7790;53.022;12.968;2023-04-03T16:45:18;20.70;41.70
15384;DHT22;7790;53.022;12.968;2023-04-03T16:49:19;20.70;41.70
15384;DHT22;7790;53.022;12.968;2023-04-03T16:53:21;20.60;41.90
15384;DHT22;7790;53.022;12.968;2023-04-03T16:57:23;20.50;41.90
15384;DHT22;7790;53.022;12.968;2023-04-03T17:01:27;20.30;41.80
15384;DHT22;7790;53.022;12.968;2023-04-03T17:05:28;20.30;41.90
15384;DHT22;7790;53.022;12.968;2023-04-03T17:09:28;20.40;41.80
15384;DHT22;7790;53.022;12.968;2023-04-03T17:13:29;20.50;42.00
15384;DHT22;7790;53.022;12.968;2023-04-03T17:17:32;20.60;41.80
15384;DHT22;7790;53.022;12.968;2023-04-03T17:21:33;20.80;41.80
15384;DHT22;7790;53.022;12.968;2023-04-03T17:25:34;20.90;41.50
15384;DHT22;7790;53.022;12.968;2023-04-03T17:29:35;20.90;41.40
15384;DHT22;7790;53.022;12.968;2023-04-03T17:33:36;21.00;41.20
15384;DHT22;7790;53.022;12.968;2023-04-03T17:37:37;21.00;41.50
15384;DHT22;7790;53.022;12.968;2023-04-03T17:41:38;20.90;41.60
15384;DHT22;7790;53.022;12.968;2023-04-03T17:45:39;20.90;40.90
15384;DHT22;7790;53.022;12.968;2023-04-03T17:49:40;20.90;41.20
15384;DHT22;7790;53.022;12.968;2023-04-03T17:53:42;20.80;41.30
15384;DHT22;7790;53.022;12.968;2023-04-03T17:57:43;20.70;40.90
15384;DHT22;7790;53.022;12.968;2023-04-03T18:01:45;20.60;41.10
15384;DHT22;7790;53.022;12.968;2023-04-03T18:05:47;20.60;41.30
15384;DHT22;7790;53.022;12.968;2023-04-03T18:09:51;20.50;41.60
15384;DHT22;7790;53.022;12.968;2023-04-03T18:13:54;20.50;41.70
15384;DHT22;7790;53.022;12.968;2023-04-03T18:17:57;20.40;41.80
15384;DHT22;7790;53.022;12.968;2023-04-03T18:22:02;20.40;41.80
15384;DHT22;7790;53.022;12.968;2023-04-03T18:26:03;20.40;41.90
15384;DHT22;7790;53.022;12.968;2023-04-03T18:30:09;20.50;42.10
15384;DHT22;7790;53.022;12.968;2023-04-03T18:34:11;20.70;42.60
15384;DHT22;7790;53.022;12.968;2023-04-03T18:38:12;20.90;43.30
15384;DHT22;7790;53.022;12.968;2023-04-03T18:42:16;20.90;42.80
15384;DHT22;7790;53.022;12.968;2023-04-03T18:46:17;21.00;43.20
15384;DHT22;7790;53.022;12.968;2023-04-03T18:50:19;21.00;42.80
15384;DHT22;7790;53.022;12.968;2023-04-03T18:54:20;21.10;43.30
15384;DHT22;7790;53.022;12.968;2023-04-03T18:58:21;21.10;43.70
15384;DHT22;7790;53.022;12.968;2023-04-03T19:02:22;21.10;43.90
15384;DHT22;7790;53.022;12.968;2023-04-03T19:06:25;21.10;43.90
15384;DHT22;7790;53.022;12.968;2023-04-03T19:10:27;21.10;43.70
15384;DHT22;7790;53.022;12.968;2023-04-03T19:14:28;21.00;43.70
15384;DHT22;7790;53.022;12.968;2023-04-03T19:18:29;20.90;43.50
15384;DHT22;7790;53.022;12.968;2023-04-03T19:22:30;20.80;43.50
15384;DHT22;7790;53.022;12.968;2023-04-03T19:26:31;20.80;43.40
15384;DHT22;7790;53.022;12.968;2023-04-03T19:30:32;20.70;43.70
15384;DHT22;7790;53.022;12.968;2023-04-03T19:34:33;20.60;43.50
15384;DHT22;7790;53.022;12.968;2023-04-03T19:38:34;20.50;43.60
15384;DHT22;7790;53.022;12.968;2023-04-03T19:42:35;20.50;43.70
15384;DHT22;7790;53.022;12.968;2023-04-03T19:46:42;20.50;43.90
15384;DHT22;7790;53.022;12.968;2023-04-03T19:50:43;20.50;43.80
15384;DHT22;7790;53.022;12.968;2023-04-03T19:54:44;20.60;43.60
15384;DHT22;7790;53.022;12.968;2023-04-03T19:58:45;20.70;43.40
15384;DHT22;7790;53.022;12.968;2023-04-03T20:02:53;20.70;43.40
15384;DHT22;7790;53.022;12.968;2023-04-03T20:06:53;20.80;43.10
15384;DHT22;7790;53.022;12.968;2023-04-03T20:10:54;20.70;43.00
15384;DHT22;7790;53.022;12.968;2023-04-03T20:14:55;20.70;43.10
15384;DHT22;7790;53.022;12.968;2023-04-03T20:18:58;20.60;43.10
15384;DHT22;7790;53.022;12.968;2023-04-03T20:22:59;20.60;42.90
15384;DHT22;7790;53.022;12.968;2023-04-03T20:27:01;20.50;43.00
15384;DHT22;7790;53.022;12.968;2023-04-03T20:31:02;20.50;43.10
15384;DHT22;7790;53.022;12.968;2023-04-03T20:35:03;20.50;43.10
15384;DHT22;7790;53.022;12.968;2023-04-03T20:39:04;20.50;42.90
15384;DHT22;7790;53.022;12.968;2023-04-03T20:43:05;20.60;43.10
15384;DHT22;7790;53.022;12.968;2023-04-03T20:47:06;20.60;43.10
15384;DHT22;7790;53.022;12.968;2023-04-03T20:51:16;20.70;42.80
15384;DHT22;7790;53.022;12.968;2023-04-03T20:55:18;20.70;42.80
15384;DHT22;7790;53.022;12.968;2023-04-03T20:59:19;20.70;42.60
15384;DHT22;7790;53.022;12.968;2023-04-03T21:03:20;20.70;42.50
15384;DHT22;7790;53.022;12.968;2023-04-03T21:20:39;20.60;42.50
15384;DHT22;7790;53.022;12.968;2023-04-03T21:24:40;20.50;42.40
15384;DHT22;7790;53.022;12.968;2023-04-03T21:28:41;20.50;42.30
15384;DHT22;7790;53.022;12.968;2023-04-03T21:32:42;20.40;42.40
15384;DHT22;7790;53.022;12.968;2023-04-03T21:36:43;20.30;42.40
15384;DHT22;7790;53.022;12.968;2023-04-03T21:40:44;20.30;42.30
15384;DHT22;7790;53.022;12.968;2023-04-03T21:44:46;20.30;42.30
15384;DHT22;7790;53.022;12.968;2023-04-03T21:48:48;20.20;42.40
15384;DHT22;7790;53.022;12.968;2023-04-03T21:52:52;20.10;42.40
15384;DHT22;7790;53.022;12.968;2023-04-03T21:56:53;20.10;42.50
15384;DHT22;7790;53.022;12.968;2023-04-03T22:00:54;20.30;42.50
15384;DHT22;7790;53.022;12.968;2023-04-03T22:04:55;20.40;42.30
15384;DHT22;7790;53.022;12.968;2023-04-03T22:08:56;20.50;42.10
15384;DHT22;7790;53.022;12.968;2023-04-03T22:12:57;20.60;41.90
15384;DHT22;7790;53.022;12.968;2023-04-03T22:16:58;20.70;41.80
15384;DHT22;7790;53.022;12.968;2023-04-03T22:20:59;20.80;41.70
15384;DHT22;7790;53.022;12.968;2023-04-03T22:25:00;20.80;41.80
15384;DHT22;7790;53.022;12.968;2023-04-03T22:29:01;20.90;41.60
15384;DHT22;7790;53.022;12.968;2023-04-03T22:33:03;20.90;41.60
15384;DHT22;7790;53.022;12.968;2023-04-03T22:37:04;20.80;41.70
15384;DHT22;7790;53.022;12.968;2023-04-03T22:41:06;20.70;41.70
15384;DHT22;7790;53.022;12.968;2023-04-03T22:45:07;20.60;41.80
15384;DHT22;7790;53.022;12.968;2023-04-03T22:49:08;20.50;41.80
15384;DHT22;7790;53.022;12.968;2023-04-03T22:53:09;20.40;41.80
15384;DHT22;7790;53.022;12.968;2023-04-03T22:57:10;20.30;42.00
15384;DHT22;7790;53.022;12.968;2023-04-03T23:01:12;20.30;41.80
15384;DHT22;7790;53.022;12.968;2023-04-03T23:05:14;20.30;41.90
15384;DHT22;7790;53.022;12.968;2023-04-03T23:09:15;20.30;41.60
15384;DHT22;7790;53.022;12.968;2023-04-03T23:13:16;20.20;41.80
15384;DHT22;7790;53.022;12.968;2023-04-03T23:17:17;20.20;41.70
15384;DHT22;7790;53.022;12.968;2023-04-03T23:21:18;20.20;41.60
15384;DHT22;7790;53.022;12.968;2023-04-03T23:25:19;20.30;41.60
15384;DHT22;7790;53.022;12.968;2023-04-03T23:29:20;20.40;41.50
15384;DHT22;7790;53.022;12.968;2023-04-03T23:33:21;20.50;41.40
15384;DHT22;7790;53.022;12.968;2023-04-03T23:37:22;20.60;41.20
15384;DHT22;7790;53.022;12.968;2023-04-03T23:41:23;20.70;41.10
15384;DHT22;7790;53.022;12.968;2023-04-03T23:45:24;20.80;41.10
15384;DHT22;7790;53.022;12.968;2023-04-03T23:49:25;20.80;40.90
15384;DHT22;7790;53.022;12.968;2023-04-03T23:53:27;20.80;41.10
15384;DHT22;7790;53.022;12.968;2023-04-03T23:57:28;20.80;41.00
